Phoneton, Ohio
Current Conditions -  °F | °C
As of 7:56 AM on Tuesday 21 Oct 2014 (Local Time) from KDAY Reporting Station
Overcast Overcast  
Wind Chill: 44°   Ceiling: 5500
Heat Index: 49°   Visibility: 10mi
Dew Point: 43°   Wind: 12mph
Humidity: 80%   Direction: 320°NW
Pressure: 29.98"   Gusts: NA
Location:  39.9332°N, 84.1192°W
Report Text: KDAY 211156Z 32010KT 10SM OVC055 09/06 A2998 RMK AO2 SLP151 60000 70015 T00940061 10117 20094 53015
Loading
Personal Weather Stations






























Interactive Weather Map
Tropical Storm Tracking
New forecast layout! Learn more

10-Day Weather Forecast

Advertisements
Track Severe Weather on mobile